Tropical Cyclones
[Index]
Main Index Home Page Stock Weather Photos Extreme Storms Discussion Storm News and Storm Chasing Reports Tropical Cyclones / Hurricanes / Typhoons Weather Data and Links Wild Fires / Bushfires Weather Observation Techniques Weather Picture Catalogue Tornado Pictures and Reports Stock Video Footage and DVDs for sale
Season 2003-2004 Tropical Cyclone JANA Track Map
Season 2003-2004 Summaries: [BoM-AU] [JTWC-AU] [JTWC-SIO] [JTWC-SPAC] [JTWC-SH]
<<- Previous TC | JTWC 2003-2004 Season | Next TC ->>

click for intensity scale information  Lat/long Grid: Show Hide

 Date Labels: Show Hide

Joint Typhoon Warning Centre Cyclone Data

Name: JANA

06 Dec 2003 12:00 UTC to 17 Dec 2003 18:00 UTC

    date/time    lat    long     hPa   cat  kts
2003-12-06 12    7.5    93.6    1006         15          
2003-12-06 18    7.7    94.5    1002         25          
2003-12-07 00    7.8    95.3     997         35          
2003-12-07 06    7.8    96.0     994    1    40          
2003-12-07 12    7.8    96.5     987    1    50          
2003-12-07 18    7.8    97.0     984    2    55          
2003-12-08 00    7.8    97.5     980    2    60          
2003-12-08 06    8.1    98.1     976    2    65          
2003-12-08 12    8.7    98.6     976    2    65          
2003-12-08 18    9.3    99.0     972    2    70          
2003-12-09 00   10.2    99.1     967    3    75          
2003-12-09 06   11.1    99.2     963    3    80          
2003-12-09 12   12.0    99.2     963    3    80          
2003-12-09 18   12.8    99.2     963    3    80          
2003-12-10 00   13.6    99.2     963    3    80          
2003-12-10 06   14.2    98.9     967    3    75          
2003-12-10 12   14.6    98.6     972    2    70          
2003-12-10 18   14.8    98.1     976    2    65          
2003-12-11 00   14.8    97.4     987    1    50          
2003-12-11 06   14.8    96.6     997         35          
2003-12-11 12   14.9    95.8     997         35          
2003-12-11 18   14.9    95.0     997         35          
2003-12-12 00   14.9    94.1    1000         30          
2003-12-12 06   14.8    93.1    1002         25          
2003-12-12 12   14.7    91.9    1002         25          
2003-12-12 18   14.5    90.7    1002         25          
2003-12-13 00   14.4    89.6    1002         25          
2003-12-13 06   14.6    88.4    1002         25          
2003-12-13 12   14.8    87.0    1002         25          
2003-12-13 18   14.7    85.6    1002         25          
2003-12-14 00   14.4    84.2    1002         25          
2003-12-14 06   13.9    82.8    1002         25          
2003-12-14 12   13.6    81.4    1002         25          
2003-12-14 18   13.3    79.8    1002         25          
2003-12-15 00   12.8    78.1    1002         25          
2003-12-15 06   12.4    76.6    1002         25          
2003-12-15 12   12.0    75.3    1002         25          
2003-12-15 18   11.6    73.9    1002         25          
2003-12-16 00   11.2    72.4    1002         25          
2003-12-16 06   11.0    71.1    1002         25          
2003-12-16 12   11.0    69.9    1002         25          
2003-12-16 18   11.0    68.9    1002         25          
2003-12-17 00   10.9    67.8    1002         25          
2003-12-17 06   10.9    66.8    1002         25          
2003-12-17 12   11.0    65.7    1002         25          
2003-12-17 18   11.2    65.0    1002         25          
Winds are 1-min average.

Tropical cyclone tracks developed by Michael Bath using data from the Joint Typhoon Warning Centre Best Tracks and Google Maps.


[Australian Severe Weather index] [Copyright Notice] [Email Contacts] [Search This Site] [Privacy Policy]
Document: tropical_cyclone_jana.htm Updated: 28 June 2017